Time,TemperatureF,DewpointF,PressureIn,WindDirection,WindDirectionDegrees,WindSpeedMPH,WindSpeedGustMPH,Humidity,HourlyPrecipIn,Conditions,Clouds,dailyrainin,SoftwareType,DateUTC
2013-10-13 00:03:00,34.7,31.3,30.04,South,180,1.0,2.0,87,0.00,,,0.00,meteohub,2013-10-13 07:03:00,
2013-10-13 00:08:00,34.7,31.3,30.04,South,180,1.0,2.0,87,0.00,,,0.00,meteohub,2013-10-13 07:08:00,
2013-10-13 00:13:00,34.9,31.5,30.04,South,180,1.0,2.0,87,0.00,,,0.00,meteohub,2013-10-13 07:13:00,
2013-10-13 00:18:00,34.7,31.3,30.04,South,180,0.0,1.0,87,0.00,,,0.00,meteohub,2013-10-13 07:18:00,
2013-10-13 00:23:00,34.3,30.4,30.04,South,180,1.0,1.0,85,0.00,,,0.00,meteohub,2013-10-13 07:23:00,
2013-10-13 00:28:00,34.0,30.2,30.03,South,180,2.0,2.0,86,0.00,,,0.00,meteohub,2013-10-13 07:28:00,
2013-10-13 00:33:00,34.0,30.6,30.03,South,180,0.0,2.0,87,0.00,,,0.00,meteohub,2013-10-13 07:33:00,
2013-10-13 00:38:00,33.8,30.0,30.03,South,180,1.0,2.0,86,0.00,,,0.00,meteohub,2013-10-13 07:38:00,
2013-10-13 00:43:00,33.8,30.4,30.03,South,180,0.0,3.0,87,0.00,,,0.00,meteohub,2013-10-13 07:43:00,
2013-10-13 00:48:00,33.8,30.4,30.04,East,90,2.0,3.0,87,0.00,,,0.00,meteohub,2013-10-13 07:48:00,
2013-10-13 00:53:00,33.6,30.2,30.03,WSW,248,1.0,3.0,87,0.00,,,0.00,meteohub,2013-10-13 07:53:00,
2013-10-13 00:58:00,34.0,30.7,30.03,SSE,158,1.0,3.0,88,0.00,,,0.00,meteohub,2013-10-13 07:58:00,
2013-10-13 01:03:00,34.2,30.9,30.03,SSE,158,1.0,2.0,88,0.00,,,0.00,meteohub,2013-10-13 08:03:00,
2013-10-13 01:08:00,34.3,30.9,30.03,SSE,158,1.0,1.0,87,0.00,,,0.00,meteohub,2013-10-13 08:08:00,
2013-10-13 01:13:00,34.3,30.9,30.03,South,180,1.0,2.0,87,0.00,,,0.00,meteohub,2013-10-13 08:13:00,
2013-10-13 01:18:00,34.3,30.9,30.03,South,180,0.0,2.0,87,0.00,,,0.00,meteohub,2013-10-13 08:18:00,
2013-10-13 01:23:00,34.2,30.4,30.03,South,180,1.0,2.0,86,0.00,,,0.00,meteohub,2013-10-13 08:23:00,
2013-10-13 01:28:00,33.8,30.0,30.03,South,180,0.0,2.0,86,0.00,,,0.00,meteohub,2013-10-13 08:28:00,
2013-10-13 01:33:00,33.6,29.8,30.03,South,180,1.0,2.0,86,0.00,,,0.00,meteohub,2013-10-13 08:33:00,
2013-10-13 01:38:00,33.6,29.8,30.03,South,180,1.0,2.0,86,0.00,,,0.00,meteohub,2013-10-13 08:38:00,
2013-10-13 01:44:00,33.6,30.2,30.03,South,180,0.0,1.0,87,0.00,,,0.00,meteohub,2013-10-13 08:44:00,
2013-10-13 01:49:00,33.8,30.4,30.03,South,180,0.0,2.0,87,0.00,,,0.00,meteohub,2013-10-13 08:49:00,
2013-10-13 01:54:00,33.6,29.8,30.03,East,90,2.0,2.0,86,0.00,,,0.00,meteohub,2013-10-13 08:54:00,
2013-10-13 01:59:00,33.4,29.7,30.02,East,90,0.0,2.0,86,0.00,,,0.00,meteohub,2013-10-13 08:59:00,
2013-10-13 02:04:00,33.4,29.7,30.03,East,90,0.0,2.0,86,0.00,,,0.00,meteohub,2013-10-13 09:04:00,
2013-10-13 02:09:00,33.3,29.5,30.03,East,90,0.0,2.0,86,0.00,,,0.00,meteohub,2013-10-13 09:09:00,
2013-10-13 02:14:00,33.3,29.5,30.03,East,90,1.0,2.0,86,0.00,,,0.00,meteohub,2013-10-13 09:14:00,
2013-10-13 02:19:00,32.9,29.1,30.02,East,90,2.0,2.0,86,0.00,,,0.00,meteohub,2013-10-13 09:19:00,
2013-10-13 02:24:00,33.3,29.8,30.02,East,90,1.0,3.0,87,0.00,,,0.00,meteohub,2013-10-13 09:24:00,
2013-10-13 02:29:00,33.4,29.7,30.02,East,90,1.0,3.0,86,0.00,,,0.00,meteohub,2013-10-13 09:29:00,
2013-10-13 02:34:00,33.4,29.7,30.02,East,90,2.0,3.0,86,0.00,,,0.00,meteohub,2013-10-13 09:34:00,
2013-10-13 02:39:00,33.3,29.3,30.01,East,90,1.0,2.0,85,0.00,,,0.00,meteohub,2013-10-13 09:39:00,
2013-10-13 02:44:00,33.3,29.3,30.01,East,90,1.0,2.0,85,0.00,,,0.00,meteohub,2013-10-13 09:44:00,
2013-10-13 02:49:00,33.3,29.5,30.01,East,90,0.0,2.0,86,0.00,,,0.00,meteohub,2013-10-13 09:49:00,
2013-10-13 02:54:00,33.4,29.5,30.02,East,90,1.0,2.0,85,0.00,,,0.00,meteohub,2013-10-13 09:54:00,
2013-10-13 02:59:00,33.3,29.3,30.01,East,90,1.0,2.0,85,0.00,,,0.00,meteohub,2013-10-13 09:59:00,
2013-10-13 03:04:00,33.1,29.1,30.00,East,90,1.0,2.0,85,0.00,,,0.00,meteohub,2013-10-13 10:04:00,
2013-10-13 03:09:00,33.1,29.1,30.00,East,90,1.0,2.0,85,0.00,,,0.00,meteohub,2013-10-13 10:09:00,
2013-10-13 03:14:00,33.4,29.5,30.00,East,90,0.0,2.0,85,0.00,,,0.00,meteohub,2013-10-13 10:14:00,
2013-10-13 03:19:00,34.0,30.0,30.00,East,90,1.0,2.0,85,0.00,,,0.00,meteohub,2013-10-13 10:19:00,
2013-10-13 03:24:00,34.3,30.0,30.00,East,90,0.0,2.0,84,0.00,,,0.00,meteohub,2013-10-13 10:24:00,
2013-10-13 03:29:00,34.9,30.6,30.00,East,90,1.0,2.0,84,0.00,,,0.00,meteohub,2013-10-13 10:29:00,
2013-10-13 03:34:00,35.2,30.6,30.00,East,90,0.0,2.0,83,0.00,,,0.00,meteohub,2013-10-13 10:34:00,
2013-10-13 03:39:00,35.2,30.4,30.00,East,90,0.0,2.0,82,0.00,,,0.00,meteohub,2013-10-13 10:39:00,
2013-10-13 03:44:00,35.2,29.7,30.00,East,90,1.0,2.0,80,0.00,,,0.00,meteohub,2013-10-13 10:44:00,
2013-10-13 03:49:00,35.2,29.3,30.01,East,90,0.0,1.0,79,0.00,,,0.00,meteohub,2013-10-13 10:49:00,
2013-10-13 03:54:00,34.9,29.1,30.01,East,90,2.0,2.0,79,0.00,,,0.00,meteohub,2013-10-13 10:54:00,
2013-10-13 03:59:00,34.7,28.9,30.00,East,90,2.0,2.0,79,0.00,,,0.00,meteohub,2013-10-13 10:59:00,
2013-10-13 04:04:00,34.7,28.6,30.00,East,90,1.0,2.0,78,0.00,,,0.00,meteohub,2013-10-13 11:04:00,
2013-10-13 04:09:00,34.9,28.4,30.00,East,90,1.0,2.0,77,0.00,,,0.00,meteohub,2013-10-13 11:09:00,
2013-10-13 04:14:00,34.9,27.7,30.00,East,90,0.0,2.0,75,0.00,,,0.00,meteohub,2013-10-13 11:14:00,
2013-10-13 04:19:00,34.7,27.7,30.01,East,90,1.0,2.0,75,0.00,,,0.00,meteohub,2013-10-13 11:19:00,
2013-10-13 04:24:00,34.7,27.7,30.01,East,90,1.0,2.0,75,0.00,,,0.00,meteohub,2013-10-13 11:24:00,
2013-10-13 04:29:00,34.5,27.1,30.01,East,90,0.0,2.0,74,0.00,,,0.00,meteohub,2013-10-13 11:29:00,
2013-10-13 04:34:00,34.5,27.1,30.01,East,90,0.0,1.0,74,0.00,,,0.00,meteohub,2013-10-13 11:34:00,
2013-10-13 04:39:00,34.3,27.0,30.01,East,90,0.0,1.0,74,0.00,,,0.00,meteohub,2013-10-13 11:39:00,
2013-10-13 04:44:00,34.2,26.4,30.00,East,90,1.0,2.0,73,0.00,,,0.00,meteohub,2013-10-13 11:44:00,
2013-10-13 04:49:00,34.2,26.1,30.00,East,90,1.0,2.0,72,0.00,,,0.00,meteohub,2013-10-13 11:49:00,
2013-10-13 04:54:00,34.2,26.1,30.01,East,90,1.0,2.0,72,0.00,,,0.00,meteohub,2013-10-13 11:54:00,
2013-10-13 04:59:00,34.2,25.7,30.01,East,90,0.0,2.0,71,0.00,,,0.00,meteohub,2013-10-13 11:59:00,
2013-10-13 05:04:00,34.2,25.7,30.00,East,90,0.0,2.0,71,0.00,,,0.00,meteohub,2013-10-13 12:04:00,
2013-10-13 05:09:00,34.0,25.5,30.01,East,90,1.0,2.0,71,0.00,,,0.00,meteohub,2013-10-13 12:09:00,
2013-10-13 05:15:00,33.8,25.7,30.01,East,90,1.0,2.0,72,0.00,,,0.00,meteohub,2013-10-13 12:15:00,
2013-10-13 05:20:00,33.4,25.3,30.01,East,90,2.0,2.0,72,0.00,,,0.00,meteohub,2013-10-13 12:20:00,
2013-10-13 05:25:00,33.4,25.3,30.00,SSE,158,1.0,3.0,72,0.00,,,0.00,meteohub,2013-10-13 12:25:00,
2013-10-13 05:30:00,33.6,25.2,30.01,SSE,158,1.0,3.0,71,0.00,,,0.00,meteohub,2013-10-13 12:30:00,
2013-10-13 05:35:00,33.6,25.2,30.00,SSE,158,1.0,3.0,71,0.00,,,0.00,meteohub,2013-10-13 12:35:00,
2013-10-13 05:40:00,33.4,25.0,30.01,South,180,1.0,3.0,71,0.00,,,0.00,meteohub,2013-10-13 12:40:00,
2013-10-13 05:45:00,33.4,25.0,30.01,South,180,1.0,1.0,71,0.00,,,0.00,meteohub,2013-10-13 12:45:00,
2013-10-13 05:50:00,33.4,24.8,30.01,South,180,2.0,2.0,70,0.00,,,0.00,meteohub,2013-10-13 12:50:00,
2013-10-13 05:55:00,33.6,24.8,30.01,South,180,1.0,2.0,70,0.00,,,0.00,meteohub,2013-10-13 12:55:00,
2013-10-13 06:00:00,33.8,24.4,30.01,South,180,2.0,2.0,68,0.00,,,0.00,meteohub,2013-10-13 13:00:00,
2013-10-13 06:05:00,34.0,24.6,30.01,South,180,1.0,2.0,68,0.00,,,0.00,meteohub,2013-10-13 13:05:00,
2013-10-13 06:10:00,34.3,24.4,30.01,South,180,1.0,2.0,67,0.00,,,0.00,meteohub,2013-10-13 13:10:00,
2013-10-13 06:15:00,34.5,24.3,30.01,South,180,0.0,2.0,66,0.00,,,0.00,meteohub,2013-10-13 13:15:00,
2013-10-13 06:20:00,34.7,24.1,30.01,East,90,1.0,2.0,65,0.00,,,0.00,meteohub,2013-10-13 13:20:00,
2013-10-13 06:25:00,34.9,24.3,30.01,East,90,1.0,3.0,65,0.00,,,0.00,meteohub,2013-10-13 13:25:00,
2013-10-13 06:30:00,35.2,23.9,30.01,East,90,2.0,3.0,63,0.00,,,0.00,meteohub,2013-10-13 13:30:00,
2013-10-13 06:35:00,35.2,23.9,30.01,East,90,0.0,3.0,63,0.00,,,0.00,meteohub,2013-10-13 13:35:00,
2013-10-13 06:40:00,35.2,23.9,30.01,East,90,2.0,2.0,63,0.00,,,0.00,meteohub,2013-10-13 13:40:00,
2013-10-13 06:45:00,35.4,23.7,30.01,East,90,2.0,2.0,62,0.00,,,0.00,meteohub,2013-10-13 13:45:00,
2013-10-13 06:50:00,35.8,23.7,30.02,East,90,1.0,2.0,61,0.00,,,0.00,meteohub,2013-10-13 13:50:00,
2013-10-13 06:55:00,36.0,23.9,30.01,East,90,2.0,2.0,61,0.00,,,0.00,meteohub,2013-10-13 13:55:00,
2013-10-13 07:00:00,35.8,23.7,30.01,East,90,1.0,2.0,61,0.00,,,0.00,meteohub,2013-10-13 14:00:00,
2013-10-13 07:05:00,35.8,23.7,30.02,East,90,1.0,2.0,61,0.00,,,0.00,meteohub,2013-10-13 14:05:00,
2013-10-13 07:10:00,35.6,23.0,30.02,East,90,1.0,2.0,60,0.00,,,0.00,meteohub,2013-10-13 14:10:00,
2013-10-13 07:15:00,35.4,23.0,30.02,East,90,1.0,2.0,60,0.00,,,0.00,meteohub,2013-10-13 14:15:00,
2013-10-13 07:20:00,35.2,22.8,30.02,East,90,1.0,2.0,60,0.00,,,0.00,meteohub,2013-10-13 14:20:00,
2013-10-13 07:25:00,35.4,23.4,30.02,East,90,2.0,2.0,61,0.00,,,0.00,meteohub,2013-10-13 14:25:00,
2013-10-13 07:30:00,36.1,23.5,30.02,East,90,0.0,2.0,60,0.00,,,0.00,meteohub,2013-10-13 14:30:00,
2013-10-13 07:35:00,36.7,24.4,30.02,East,90,1.0,2.0,61,0.00,,,0.00,meteohub,2013-10-13 14:35:00,
2013-10-13 07:40:00,37.2,24.6,30.02,East,90,2.0,2.0,60,0.00,,,0.00,meteohub,2013-10-13 14:40:00,
2013-10-13 07:46:00,37.6,24.6,30.03,East,90,1.0,2.0,59,0.00,,,0.00,meteohub,2013-10-13 14:46:00,
2013-10-13 07:51:00,38.3,25.2,30.03,East,90,1.0,2.0,59,0.00,,,0.00,meteohub,2013-10-13 14:51:00,
2013-10-13 07:56:00,38.7,25.5,30.03,East,90,1.0,2.0,59,0.00,,,0.00,meteohub,2013-10-13 14:56:00,
2013-10-13 08:01:00,39.0,25.9,30.03,East,90,1.0,2.0,59,0.00,,,0.00,meteohub,2013-10-13 15:01:00,
2013-10-13 08:07:00,39.4,25.3,30.03,East,90,1.0,2.0,57,0.00,,,0.00,meteohub,2013-10-13 15:07:00,
2013-10-13 08:12:00,40.1,25.7,30.03,East,90,1.0,2.0,56,0.00,,,0.00,meteohub,2013-10-13 15:12:00,
2013-10-13 08:17:00,41.0,26.1,30.04,East,90,1.0,2.0,55,0.00,,,0.00,meteohub,2013-10-13 15:17:00,
2013-10-13 08:22:00,41.5,26.1,30.04,SW,225,2.0,2.0,54,0.00,,,0.00,meteohub,2013-10-13 15:22:00,
2013-10-13 08:27:00,41.9,25.5,30.04,SW,225,2.0,3.0,52,0.00,,,0.00,meteohub,2013-10-13 15:27:00,
2013-10-13 08:32:00,42.4,26.1,30.04,South,180,1.0,3.0,52,0.00,,,0.00,meteohub,2013-10-13 15:32:00,
2013-10-13 08:37:00,43.5,25.7,30.04,NE,45,2.0,3.0,49,0.00,,,0.00,meteohub,2013-10-13 15:37:00,
2013-10-13 08:42:00,44.4,24.4,30.04,NE,45,2.0,6.0,45,0.00,,,0.00,meteohub,2013-10-13 15:42:00,
2013-10-13 08:47:00,45.5,24.3,30.04,SW,225,2.0,6.0,43,0.00,,,0.00,meteohub,2013-10-13 15:47:00,
2013-10-13 08:52:00,46.9,25.0,30.04,North,0,2.0,6.0,42,0.00,,,0.00,meteohub,2013-10-13 15:52:00,
2013-10-13 08:57:00,47.5,23.2,30.04,North,0,2.0,4.0,38,0.00,,,0.00,meteohub,2013-10-13 15:57:00,
2013-10-13 09:02:00,48.2,25.0,30.04,North,0,2.0,4.0,40,0.00,,,0.00,meteohub,2013-10-13 16:02:00,
2013-10-13 09:07:00,48.9,25.0,30.05,North,0,3.0,4.0,39,0.00,,,0.00,meteohub,2013-10-13 16:07:00,
2013-10-13 09:12:00,49.8,23.2,30.04,North,0,4.0,4.0,35,0.00,,,0.00,meteohub,2013-10-13 16:12:00,
2013-10-13 09:17:00,50.4,20.1,30.04,South,180,6.0,6.0,30,0.00,,,0.00,meteohub,2013-10-13 16:17:00,
2013-10-13 09:22:00,50.9,22.1,30.04,SW,225,2.0,7.0,32,0.00,,,0.00,meteohub,2013-10-13 16:22:00,
2013-10-13 09:27:00,51.3,20.8,30.03,East,90,3.0,7.0,30,0.00,,,0.00,meteohub,2013-10-13 16:27:00,
2013-10-13 09:32:00,51.6,21.2,30.03,East,90,3.0,7.0,30,0.00,,,0.00,meteohub,2013-10-13 16:32:00,
2013-10-13 09:37:00,51.8,18.9,30.03,South,180,4.0,4.0,27,0.00,,,0.00,meteohub,2013-10-13 16:37:00,
2013-10-13 09:42:00,51.8,20.5,30.03,SW,225,2.0,5.0,29,0.00,,,0.00,meteohub,2013-10-13 16:42:00,
2013-10-13 09:47:00,52.2,20.1,30.03,West,270,4.0,5.0,28,0.00,,,0.00,meteohub,2013-10-13 16:47:00,
2013-10-13 09:52:00,52.7,22.1,30.03,WSW,248,2.0,5.0,30,0.00,,,0.00,meteohub,2013-10-13 16:52:00,
2013-10-13 09:57:00,53.6,22.8,30.02,East,90,4.0,4.0,30,0.00,,,0.00,meteohub,2013-10-13 16:57:00,
2013-10-13 10:02:00,54.3,21.0,30.03,SW,225,4.0,4.0,27,0.00,,,0.00,meteohub,2013-10-13 17:02:00,
2013-10-13 10:07:00,54.9,21.6,30.03,SSE,158,4.0,4.0,27,0.00,,,0.00,meteohub,2013-10-13 17:07:00,
2013-10-13 10:12:00,55.2,21.7,30.03,SSW,203,3.0,4.0,27,0.00,,,0.00,meteohub,2013-10-13 17:12:00,
2013-10-13 10:17:00,55.6,22.1,30.03,SE,135,2.0,4.0,27,0.00,,,0.00,meteohub,2013-10-13 17:17:00,
2013-10-13 10:22:00,55.8,20.5,30.03,West,270,3.0,4.0,25,0.00,,,0.00,meteohub,2013-10-13 17:22:00,
2013-10-13 10:27:00,55.9,20.7,30.04,West,270,2.0,5.0,25,0.00,,,0.00,meteohub,2013-10-13 17:27:00,
2013-10-13 10:32:00,56.7,22.1,30.04,SW,225,2.0,5.0,26,0.00,,,0.00,meteohub,2013-10-13 17:32:00,
2013-10-13 10:37:00,56.8,21.4,30.04,West,270,4.0,5.0,25,0.00,,,0.00,meteohub,2013-10-13 17:37:00,
2013-10-13 10:42:00,57.0,21.6,30.04,West,270,3.0,6.0,25,0.00,,,0.00,meteohub,2013-10-13 17:42:00,
2013-10-13 10:47:00,57.9,22.3,30.03,SW,225,2.0,6.0,25,0.00,,,0.00,meteohub,2013-10-13 17:47:00,
2013-10-13 10:52:00,58.1,19.4,30.03,East,90,4.0,6.0,22,0.00,,,0.00,meteohub,2013-10-13 17:52:00,
2013-10-13 10:57:00,58.1,20.5,30.03,SW,225,4.0,4.0,23,0.00,,,0.00,meteohub,2013-10-13 17:57:00,
2013-10-13 11:02:00,58.3,21.6,30.03,SE,135,2.0,4.0,24,0.00,,,0.00,meteohub,2013-10-13 18:02:00,
2013-10-13 11:07:00,58.5,21.7,30.04,SW,225,4.0,4.0,24,0.00,,,0.00,meteohub,2013-10-13 18:07:00,
2013-10-13 11:12:00,58.8,23.0,30.04,South,180,2.0,4.0,25,0.00,,,0.00,meteohub,2013-10-13 18:12:00,
2013-10-13 11:17:00,59.0,23.2,30.04,West,270,3.0,4.0,25,0.00,,,0.00,meteohub,2013-10-13 18:17:00,
2013-10-13 11:22:00,59.0,23.2,30.04,SW,225,4.0,5.0,25,0.00,,,0.00,meteohub,2013-10-13 18:22:00,
2013-10-13 11:27:00,58.6,23.9,30.04,SSW,203,3.0,5.0,26,0.00,,,0.00,meteohub,2013-10-13 18:27:00,
2013-10-13 11:32:00,58.5,23.7,30.04,South,180,4.0,7.0,26,0.00,,,0.00,meteohub,2013-10-13 18:32:00,
2013-10-13 11:37:00,58.1,23.4,30.04,South,180,6.0,7.0,26,0.00,,,0.00,meteohub,2013-10-13 18:37:00,
2013-10-13 11:42:00,57.4,20.8,30.04,South,180,4.0,7.0,24,0.00,,,0.00,meteohub,2013-10-13 18:42:00,
2013-10-13 11:47:00,57.4,21.9,30.04,NE,45,4.0,7.0,25,0.00,,,0.00,meteohub,2013-10-13 18:47:00,
2013-10-13 11:52:00,57.7,22.1,30.04,South,180,2.0,7.0,25,0.00,,,0.00,meteohub,2013-10-13 18:52:00,
2013-10-13 11:57:00,58.1,23.4,30.04,NE,45,2.0,6.0,26,0.00,,,0.00,meteohub,2013-10-13 18:57:00,
2013-10-13 12:02:00,58.1,21.6,30.04,SW,225,4.0,8.0,24,0.00,,,0.00,meteohub,2013-10-13 19:02:00,
2013-10-13 12:07:00,58.5,23.7,30.04,SE,135,5.0,8.0,26,0.00,,,0.00,meteohub,2013-10-13 19:07:00,
2013-10-13 12:12:00,58.8,23.0,30.04,SW,225,2.0,8.0,25,0.00,,,0.00,meteohub,2013-10-13 19:12:00,
2013-10-13 12:17:00,59.0,23.2,30.04,NE,45,3.0,5.0,25,0.00,,,0.00,meteohub,2013-10-13 19:17:00,
2013-10-13 12:22:00,58.5,20.8,30.04,West,270,4.0,5.0,23,0.00,,,0.00,meteohub,2013-10-13 19:22:00,
2013-10-13 12:27:00,58.5,23.7,30.03,SW,225,2.0,4.0,26,0.00,,,0.00,meteohub,2013-10-13 19:27:00,
2013-10-13 12:32:00,59.0,24.1,30.04,NE,45,4.0,4.0,26,0.00,,,0.00,meteohub,2013-10-13 19:32:00,
2013-10-13 12:37:00,59.4,23.5,30.03,SW,225,4.0,6.0,25,0.00,,,0.00,meteohub,2013-10-13 19:37:00,
2013-10-13 12:42:00,59.0,23.2,30.03,SE,135,4.0,6.0,25,0.00,,,0.00,meteohub,2013-10-13 19:42:00,
2013-10-13 12:47:00,58.3,21.6,30.03,West,270,3.0,6.0,24,0.00,,,0.00,meteohub,2013-10-13 19:47:00,
2013-10-13 12:52:00,57.9,20.3,30.03,North,0,4.0,7.0,23,0.00,,,0.00,meteohub,2013-10-13 19:52:00,
2013-10-13 12:57:00,58.1,22.5,30.03,North,0,3.0,7.0,25,0.00,,,0.00,meteohub,2013-10-13 19:57:00,
2013-10-13 13:02:00,58.6,22.8,30.03,South,180,4.0,7.0,25,0.00,,,0.00,meteohub,2013-10-13 20:02:00,
2013-10-13 13:07:00,59.4,20.5,30.03,SSW,203,6.0,7.0,22,0.00,,,0.00,meteohub,2013-10-13 20:07:00,
2013-10-13 13:12:00,59.4,21.6,30.03,SW,225,4.0,6.0,23,0.00,,,0.00,meteohub,2013-10-13 20:12:00,
2013-10-13 13:17:00,59.2,21.4,30.03,East,90,3.0,6.0,23,0.00,,,0.00,meteohub,2013-10-13 20:17:00,
2013-10-13 13:22:00,59.0,22.3,30.03,North,0,4.0,8.0,24,0.00,,,0.00,meteohub,2013-10-13 20:22:00,
2013-10-13 13:27:00,58.8,21.0,30.03,West,270,2.0,8.0,23,0.00,,,0.00,meteohub,2013-10-13 20:27:00,
2013-10-13 13:32:00,58.3,21.6,30.03,West,270,3.0,8.0,24,0.00,,,0.00,meteohub,2013-10-13 20:32:00,
2013-10-13 13:37:00,57.6,21.9,30.03,South,180,4.0,5.0,25,0.00,,,0.00,meteohub,2013-10-13 20:37:00,
2013-10-13 13:42:00,57.7,23.0,30.03,NE,45,3.0,6.0,26,0.00,,,0.00,meteohub,2013-10-13 20:42:00,
2013-10-13 13:47:00,57.9,23.2,30.03,SW,225,4.0,7.0,26,0.00,,,0.00,meteohub,2013-10-13 20:47:00,
2013-10-13 13:52:00,58.8,24.1,30.03,WSW,248,5.0,7.0,26,0.00,,,0.00,meteohub,2013-10-13 20:52:00,
2013-10-13 13:57:00,58.8,24.1,30.03,SSW,203,4.0,7.0,26,0.00,,,0.00,meteohub,2013-10-13 20:57:00,
2013-10-13 14:02:00,59.0,22.3,30.03,South,180,6.0,8.0,24,0.00,,,0.00,meteohub,2013-10-13 21:02:00,
2013-10-13 14:07:00,58.8,22.1,30.03,South,180,4.0,8.0,24,0.00,,,0.00,meteohub,2013-10-13 21:07:00,
2013-10-13 14:12:00,58.5,21.7,30.03,SSW,203,4.0,7.0,24,0.00,,,0.00,meteohub,2013-10-13 21:12:00,
2013-10-13 14:17:00,57.9,22.3,30.03,South,180,3.0,8.0,25,0.00,,,0.00,meteohub,2013-10-13 21:17:00,
2013-10-13 14:22:00,58.5,22.8,30.04,South,180,3.0,8.0,25,0.00,,,0.00,meteohub,2013-10-13 21:22:00,
2013-10-13 14:27:00,58.6,21.9,30.04,SE,135,3.0,8.0,24,0.00,,,0.00,meteohub,2013-10-13 21:27:00,
2013-10-13 14:32:00,58.6,21.9,30.04,South,180,3.0,4.0,24,0.00,,,0.00,meteohub,2013-10-13 21:32:00,
2013-10-13 14:37:00,58.8,22.1,30.03,South,180,3.0,5.0,24,0.00,,,0.00,meteohub,2013-10-13 21:37:00,
2013-10-13 14:42:00,59.0,22.3,30.04,South,180,2.0,7.0,24,0.00,,,0.00,meteohub,2013-10-13 21:42:00,
2013-10-13 14:47:00,59.4,21.6,30.04,SE,135,2.0,7.0,23,0.00,,,0.00,meteohub,2013-10-13 21:47:00,
2013-10-13 14:52:00,59.5,20.7,30.04,West,270,5.0,5.0,22,0.00,,,0.00,meteohub,2013-10-13 21:52:00,
2013-10-13 14:57:00,58.8,21.0,30.03,SW,225,2.0,5.0,23,0.00,,,0.00,meteohub,2013-10-13 21:57:00,
2013-10-13 15:02:00,58.1,20.5,30.04,East,90,3.0,5.0,23,0.00,,,0.00,meteohub,2013-10-13 22:02:00,
2013-10-13 15:07:00,56.8,20.5,30.04,SW,225,4.0,5.0,24,0.00,,,0.00,meteohub,2013-10-13 22:07:00,
2013-10-13 15:12:00,55.4,20.1,30.04,SE,135,2.0,7.0,25,0.00,,,0.00,meteohub,2013-10-13 22:12:00,
2013-10-13 15:17:00,54.7,20.5,30.03,South,180,4.0,7.0,26,0.00,,,0.00,meteohub,2013-10-13 22:17:00,
2013-10-13 15:22:00,54.3,20.1,30.03,South,180,4.0,5.0,26,0.00,,,0.00,meteohub,2013-10-13 22:22:00,
2013-10-13 15:27:00,54.1,19.0,30.03,SE,135,6.0,8.0,25,0.00,,,0.00,meteohub,2013-10-13 22:27:00,
2013-10-13 15:32:00,53.8,19.8,30.03,SE,135,3.0,8.0,26,0.00,,,0.00,meteohub,2013-10-13 22:32:00,
2013-10-13 15:37:00,53.2,18.3,30.03,South,180,2.0,6.0,25,0.00,,,0.00,meteohub,2013-10-13 22:37:00,
2013-10-13 15:42:00,52.9,19.8,30.04,West,270,2.0,6.0,27,0.00,,,0.00,meteohub,2013-10-13 22:42:00,
2013-10-13 15:47:00,52.7,19.6,30.03,South,180,2.0,6.0,27,0.00,,,0.00,meteohub,2013-10-13 22:47:00,
2013-10-13 15:52:00,52.9,18.9,30.03,SE,135,1.0,6.0,26,0.00,,,0.00,meteohub,2013-10-13 22:52:00,
2013-10-13 15:57:00,52.7,18.7,30.04,ESE,113,2.0,6.0,26,0.00,,,0.00,meteohub,2013-10-13 22:57:00,
2013-10-13 16:02:00,52.7,19.6,30.04,North,0,2.0,3.0,27,0.00,,,0.00,meteohub,2013-10-13 23:02:00,
2013-10-13 16:07:00,52.2,18.3,30.04,SW,225,5.0,5.0,26,0.00,,,0.00,meteohub,2013-10-13 23:07:00,
2013-10-13 16:12:00,52.3,20.1,30.04,SE,135,4.0,5.0,28,0.00,,,0.00,meteohub,2013-10-13 23:12:00,
2013-10-13 16:17:00,52.0,19.9,30.04,South,180,3.0,5.0,28,0.00,,,0.00,meteohub,2013-10-13 23:17:00,
2013-10-13 16:22:00,51.8,20.5,30.04,South,180,2.0,5.0,29,0.00,,,0.00,meteohub,2013-10-13 23:22:00,
2013-10-13 16:27:00,51.4,21.0,30.04,SW,225,2.0,4.0,30,0.00,,,0.00,meteohub,2013-10-13 23:27:00,
2013-10-13 16:32:00,51.3,20.8,30.04,SE,135,1.0,5.0,30,0.00,,,0.00,meteohub,2013-10-13 23:32:00,
2013-10-13 16:36:00,51.1,19.9,30.04,WSW,248,2.0,5.0,29,0.00,,,0.00,meteohub,2013-10-13 23:36:00,
2013-10-13 16:41:00,50.9,20.5,30.04,NE,45,3.0,5.0,30,0.00,,,0.00,meteohub,2013-10-13 23:41:00,
2013-10-13 16:46:00,50.5,21.7,30.04,NE,45,3.0,4.0,32,0.00,,,0.00,meteohub,2013-10-13 23:46:00,
2013-10-13 16:52:00,50.2,21.4,30.04,SSE,158,2.0,3.0,32,0.00,,,0.00,meteohub,2013-10-13 23:52:00,
2013-10-13 16:57:00,50.0,22.1,30.04,SSE,158,2.0,4.0,33,0.00,,,0.00,meteohub,2013-10-13 23:57:00,
2013-10-13 17:02:00,49.6,21.7,30.04,SW,225,1.0,4.0,33,0.00,,,0.00,meteohub,2013-10-14 00:02:00,
2013-10-13 17:07:00,49.3,22.1,30.04,East,90,2.0,4.0,34,0.00,,,0.00,meteohub,2013-10-14 00:07:00,
2013-10-13 17:12:00,48.9,21.7,30.04,East,90,2.0,3.0,34,0.00,,,0.00,meteohub,2013-10-14 00:12:00,
2013-10-13 17:17:00,48.6,22.1,30.05,East,90,2.0,3.0,35,0.00,,,0.00,meteohub,2013-10-14 00:17:00,
2013-10-13 17:22:00,48.4,21.9,30.04,East,90,2.0,4.0,35,0.00,,,0.00,meteohub,2013-10-14 00:22:00,
2013-10-13 17:27:00,47.8,22.8,30.04,East,90,1.0,4.0,37,0.00,,,0.00,meteohub,2013-10-14 00:27:00,
2013-10-13 17:32:00,47.7,22.6,30.05,East,90,2.0,4.0,37,0.00,,,0.00,meteohub,2013-10-14 00:32:00,
2013-10-13 17:37:00,47.1,22.8,30.05,East,90,0.0,3.0,38,0.00,,,0.00,meteohub,2013-10-14 00:37:00,
2013-10-13 17:42:00,46.9,23.2,30.05,East,90,1.0,3.0,39,0.00,,,0.00,meteohub,2013-10-14 00:42:00,
2013-10-13 17:47:00,46.6,23.5,30.05,East,90,1.0,3.0,40,0.00,,,0.00,meteohub,2013-10-14 00:47:00,
2013-10-13 17:52:00,45.9,24.1,30.05,East,90,1.0,3.0,42,0.00,,,0.00,meteohub,2013-10-14 00:52:00,
2013-10-13 17:57:00,45.5,24.8,30.06,East,90,1.0,3.0,44,0.00,,,0.00,meteohub,2013-10-14 00:57:00,
2013-10-13 18:02:00,45.1,25.0,30.05,East,90,0.0,2.0,45,0.00,,,0.00,meteohub,2013-10-14 01:02:00,
2013-10-13 18:07:00,44.8,25.7,30.06,East,90,3.0,3.0,47,0.00,,,0.00,meteohub,2013-10-14 01:07:00,
2013-10-13 18:12:00,44.4,25.9,30.05,East,90,2.0,3.0,48,0.00,,,0.00,meteohub,2013-10-14 01:12:00,
2013-10-13 18:17:00,44.2,26.8,30.06,East,90,0.0,3.0,50,0.00,,,0.00,meteohub,2013-10-14 01:17:00,
2013-10-13 18:22:00,43.9,27.0,30.06,East,90,0.0,3.0,51,0.00,,,0.00,meteohub,2013-10-14 01:22:00,
2013-10-13 18:27:00,43.3,27.0,30.06,East,90,0.0,2.0,52,0.00,,,0.00,meteohub,2013-10-14 01:27:00,
2013-10-13 18:32:00,43.0,27.0,30.06,East,90,0.0,1.0,53,0.00,,,0.00,meteohub,2013-10-14 01:32:00,
2013-10-13 18:37:00,42.4,27.0,30.06,East,90,1.0,2.0,54,0.00,,,0.00,meteohub,2013-10-14 01:37:00,
2013-10-13 18:42:00,41.9,27.0,30.06,East,90,1.0,2.0,55,0.00,,,0.00,meteohub,2013-10-14 01:42:00,
2013-10-13 18:47:00,41.0,26.4,30.07,East,90,0.0,2.0,56,0.00,,,0.00,meteohub,2013-10-14 01:47:00,
2013-10-13 18:52:00,40.5,26.8,30.07,East,90,0.0,2.0,58,0.00,,,0.00,meteohub,2013-10-14 01:52:00,
2013-10-13 18:57:00,39.9,26.8,30.06,East,90,0.0,2.0,59,0.00,,,0.00,meteohub,2013-10-14 01:57:00,
2013-10-13 19:02:00,39.6,26.8,30.07,East,90,0.0,1.0,60,0.00,,,0.00,meteohub,2013-10-14 02:02:00,
2013-10-13 19:07:00,39.4,26.6,30.07,East,90,2.0,2.0,60,0.00,,,0.00,meteohub,2013-10-14 02:07:00,
2013-10-13 19:12:00,39.2,26.4,30.07,East,90,0.0,2.0,60,0.00,,,0.00,meteohub,2013-10-14 02:12:00,
2013-10-13 19:17:00,38.8,26.1,30.08,East,90,1.0,2.0,60,0.00,,,0.00,meteohub,2013-10-14 02:17:00,
2013-10-13 19:22:00,38.7,26.4,30.07,East,90,2.0,2.0,61,0.00,,,0.00,meteohub,2013-10-14 02:22:00,
2013-10-13 19:27:00,38.5,26.2,30.08,East,90,1.0,2.0,61,0.00,,,0.00,meteohub,2013-10-14 02:27:00,
2013-10-13 19:31:00,38.1,25.9,30.07,East,90,2.0,2.0,61,0.00,,,0.00,meteohub,2013-10-14 02:31:00,
2013-10-13 19:37:00,37.6,25.7,30.08,East,90,1.0,2.0,62,0.00,,,0.00,meteohub,2013-10-14 02:37:00,
2013-10-13 19:42:00,37.2,25.7,30.08,East,90,2.0,2.0,63,0.00,,,0.00,meteohub,2013-10-14 02:42:00,
2013-10-13 19:47:00,36.9,25.5,30.08,East,90,1.0,2.0,63,0.00,,,0.00,meteohub,2013-10-14 02:47:00,
2013-10-13 19:52:00,36.7,25.7,30.08,East,90,0.0,2.0,64,0.00,,,0.00,meteohub,2013-10-14 02:52:00,
2013-10-13 19:57:00,36.5,25.9,30.09,East,90,2.0,2.0,65,0.00,,,0.00,meteohub,2013-10-14 02:57:00,
2013-10-13 20:02:00,36.3,26.1,30.09,East,90,1.0,2.0,66,0.00,,,0.00,meteohub,2013-10-14 03:02:00,
2013-10-13 20:07:00,36.3,26.1,30.09,East,90,2.0,2.0,66,0.00,,,0.00,meteohub,2013-10-14 03:07:00,
2013-10-13 20:12:00,36.1,25.9,30.09,East,90,1.0,2.0,66,0.00,,,0.00,meteohub,2013-10-14 03:12:00,
2013-10-13 20:17:00,36.0,26.1,30.09,East,90,2.0,2.0,67,0.00,,,0.00,meteohub,2013-10-14 03:17:00,
2013-10-13 20:22:00,35.8,26.2,30.09,East,90,1.0,2.0,68,0.00,,,0.00,meteohub,2013-10-14 03:22:00,
2013-10-13 20:27:00,35.6,26.1,30.09,East,90,1.0,2.0,68,0.00,,,0.00,meteohub,2013-10-14 03:27:00,
2013-10-13 20:32:00,35.4,26.2,30.09,East,90,1.0,2.0,69,0.00,,,0.00,meteohub,2013-10-14 03:32:00,
2013-10-13 20:36:00,35.2,26.1,30.09,East,90,2.0,2.0,69,0.00,,,0.00,meteohub,2013-10-14 03:36:00,
2013-10-13 20:41:00,34.9,26.1,30.09,East,90,2.0,2.0,70,0.00,,,0.00,meteohub,2013-10-14 03:41:00,
2013-10-13 20:46:00,34.5,26.1,30.09,East,90,1.0,3.0,71,0.00,,,0.00,meteohub,2013-10-14 03:46:00,
2013-10-13 20:51:00,34.5,26.4,30.10,East,90,2.0,3.0,72,0.00,,,0.00,meteohub,2013-10-14 03:51:00,
2013-10-13 20:56:00,34.3,26.2,30.10,East,90,1.0,3.0,72,0.00,,,0.00,meteohub,2013-10-14 03:56:00,
2013-10-13 21:01:00,34.3,26.2,30.09,East,90,2.0,3.0,72,0.00,,,0.00,meteohub,2013-10-14 04:01:00,
2013-10-13 21:03:00,34.2,26.1,30.10,East,90,1.0,3.0,72,0.00,,,0.00,meteohub,2013-10-14 04:03:00,
2013-10-13 21:08:00,34.2,26.1,30.09,East,90,2.0,3.0,72,0.00,,,0.00,meteohub,2013-10-14 04:08:00,
2013-10-13 21:13:00,33.8,25.7,30.10,East,90,2.0,2.0,72,0.00,,,0.00,meteohub,2013-10-14 04:13:00,
2013-10-13 21:18:00,33.3,25.2,30.10,East,90,1.0,3.0,72,0.00,,,0.00,meteohub,2013-10-14 04:18:00,
2013-10-13 21:23:00,33.1,25.0,30.10,East,90,1.0,3.0,72,0.00,,,0.00,meteohub,2013-10-14 04:23:00,
2013-10-13 21:28:00,33.1,25.0,30.11,East,90,2.0,3.0,72,0.00,,,0.00,meteohub,2013-10-14 04:28:00,
2013-10-13 21:33:00,32.9,24.6,30.10,East,90,1.0,2.0,71,0.00,,,0.00,meteohub,2013-10-14 04:33:00,
2013-10-13 21:47:00,32.2,24.3,30.11,East,90,1.0,2.0,72,0.00,,,0.00,meteohub,2013-10-14 04:47:00,
2013-10-13 21:52:00,32.0,24.1,30.11,East,90,1.0,2.0,72,0.00,,,0.00,meteohub,2013-10-14 04:52:00,
2013-10-13 21:57:00,32.0,23.7,30.11,East,90,1.0,2.0,71,0.00,,,0.00,meteohub,2013-10-14 04:57:00,
2013-10-13 22:02:00,32.2,23.9,30.11,East,90,1.0,2.0,71,0.00,,,0.00,meteohub,2013-10-14 05:02:00,
2013-10-13 22:07:00,32.2,22.8,30.11,SE,135,4.0,4.0,68,0.00,,,0.00,meteohub,2013-10-14 05:07:00,
2013-10-13 22:12:00,32.4,22.6,30.11,SSE,158,1.0,4.0,67,0.00,,,0.00,meteohub,2013-10-14 05:12:00,
2013-10-13 22:17:00,32.4,23.0,30.11,SSE,158,2.0,4.0,68,0.00,,,0.00,meteohub,2013-10-14 05:17:00,
2013-10-13 22:22:00,32.4,22.3,30.11,SSE,158,0.0,4.0,66,0.00,,,0.00,meteohub,2013-10-14 05:22:00,
2013-10-13 22:27:00,32.2,22.1,30.11,SSE,158,0.0,2.0,66,0.00,,,0.00,meteohub,2013-10-14 05:27:00,
2013-10-13 22:32:00,32.0,21.6,30.11,SSE,158,1.0,2.0,65,0.00,,,0.00,meteohub,2013-10-14 05:32:00,
2013-10-13 22:37:00,31.8,21.0,30.11,SSE,158,1.0,2.0,64,0.00,,,0.00,meteohub,2013-10-14 05:37:00,
2013-10-13 22:42:00,31.6,20.8,30.12,SSE,158,0.0,2.0,64,0.00,,,0.00,meteohub,2013-10-14 05:42:00,
2013-10-13 22:47:00,31.5,20.7,30.12,SSE,158,2.0,2.0,64,0.00,,,0.00,meteohub,2013-10-14 05:47:00,
2013-10-13 22:52:00,31.5,21.0,30.12,SSE,158,0.0,2.0,65,0.00,,,0.00,meteohub,2013-10-14 05:52:00,
2013-10-13 22:57:00,31.3,20.8,30.12,SSE,158,1.0,2.0,65,0.00,,,0.00,meteohub,2013-10-14 05:57:00,
2013-10-13 23:02:00,31.3,20.8,30.12,SSE,158,0.0,2.0,65,0.00,,,0.00,meteohub,2013-10-14 06:02:00,
2013-10-13 23:07:00,31.3,20.8,30.12,SSE,158,2.0,2.0,65,0.00,,,0.00,meteohub,2013-10-14 06:07:00,
2013-10-13 23:12:00,31.5,21.0,30.12,SSE,158,1.0,2.0,65,0.00,,,0.00,meteohub,2013-10-14 06:12:00,
2013-10-13 23:17:00,31.5,21.0,30.12,SSE,158,0.0,2.0,65,0.00,,,0.00,meteohub,2013-10-14 06:17:00,
2013-10-13 23:22:00,31.5,21.0,30.12,SSE,158,1.0,2.0,65,0.00,,,0.00,meteohub,2013-10-14 06:22:00,
2013-10-13 23:27:00,31.3,21.2,30.12,SSE,158,2.0,2.0,66,0.00,,,0.00,meteohub,2013-10-14 06:27:00,
2013-10-13 23:32:00,31.1,21.0,30.12,SSE,158,0.0,2.0,66,0.00,,,0.00,meteohub,2013-10-14 06:32:00,
2013-10-13 23:37:00,31.3,21.2,30.12,SSE,158,1.0,2.0,66,0.00,,,0.00,meteohub,2013-10-14 06:37:00,
2013-10-13 23:42:00,31.3,21.6,30.12,SSE,158,3.0,3.0,67,0.00,,,0.00,meteohub,2013-10-14 06:42:00,
2013-10-13 23:47:00,31.3,21.6,30.12,SSE,158,0.0,3.0,67,0.00,,,0.00,meteohub,2013-10-14 06:47:00,
2013-10-13 23:52:00,31.5,21.7,30.12,SSE,158,0.0,3.0,67,0.00,,,0.00,meteohub,2013-10-14 06:52:00,
2013-10-13 23:57:00,31.5,21.7,30.12,SSE,158,1.0,3.0,67,0.00,,,0.00,meteohub,2013-10-14 06:57:00,